createdAt,value
2023-04-28T00:02:15.097Z,3.33
2023-04-28T00:05:02.410Z,3.30
2023-04-28T00:07:49.622Z,2.87
2023-04-28T00:10:36.673Z,2.83
2023-04-28T00:13:23.966Z,2.90
2023-04-28T00:16:11.050Z,3.33
2023-04-28T00:18:58.413Z,3.10
2023-04-28T00:21:45.593Z,2.97
2023-04-28T00:24:33.765Z,3.20
2023-04-28T00:27:20.819Z,3.53
2023-04-28T00:30:08.571Z,2.80
2023-04-28T00:32:55.773Z,3.00
2023-04-28T00:35:42.834Z,3.37
2023-04-28T00:38:29.862Z,3.33
2023-04-28T00:41:17.015Z,3.00
2023-04-28T00:44:04.202Z,3.13
2023-04-28T00:46:51.303Z,3.30
2023-04-28T00:49:38.589Z,3.37
2023-04-28T00:52:25.669Z,3.27
2023-04-28T00:55:15.774Z,3.27
2023-04-28T00:58:03.031Z,3.10
2023-04-28T01:00:50.132Z,2.90
2023-04-28T01:03:39.187Z,2.97
2023-04-28T01:06:27.370Z,3.00
2023-04-28T01:09:16.217Z,3.57
2023-04-28T01:12:03.577Z,2.90
2023-04-28T01:15:04.669Z,3.53
2023-04-28T01:17:52.728Z,3.23
2023-04-28T01:20:39.720Z,3.17
2023-04-28T01:23:27.163Z,2.97
2023-04-28T01:26:14.213Z,2.97
2023-04-28T01:29:01.628Z,3.00
2023-04-28T01:31:48.687Z,2.53
2023-04-28T01:34:37.356Z,2.70
2023-04-28T01:37:26.431Z,3.20
2023-04-28T01:40:14.436Z,3.30
2023-04-28T01:43:01.491Z,3.20
2023-04-28T01:45:51.373Z,3.10
2023-04-28T01:48:38.678Z,3.40
2023-04-28T01:51:27.157Z,3.27
2023-04-28T01:54:14.670Z,3.23
2023-04-28T01:57:03.219Z,3.50
2023-04-28T01:59:51.484Z,3.30
2023-04-28T02:02:38.660Z,3.33
2023-04-28T02:05:25.968Z,3.20
2023-04-28T02:08:13.100Z,2.90
2023-04-28T02:11:01.620Z,3.40
2023-04-28T02:13:48.654Z,3.27
2023-04-28T02:16:35.688Z,3.30
2023-04-28T02:19:23.104Z,3.10
2023-04-28T02:22:10.093Z,3.53
2023-04-28T02:24:57.676Z,3.10
2023-04-28T02:27:44.661Z,3.30
2023-04-28T02:30:31.635Z,3.43
2023-04-28T02:33:18.635Z,3.50
2023-04-28T02:36:07.764Z,3.13
2023-04-28T02:38:54.824Z,3.10
2023-04-28T02:41:41.797Z,3.37
2023-04-28T02:44:28.783Z,2.70
2023-04-28T02:47:15.912Z,3.37
2023-04-28T02:50:03.063Z,2.93
2023-04-28T02:52:50.233Z,3.23
2023-04-28T02:55:37.231Z,3.10
2023-04-28T02:58:24.304Z,3.13
2023-04-28T03:01:11.388Z,3.03
2023-04-28T03:03:58.640Z,3.33
2023-04-28T03:06:46.049Z,3.03
2023-04-28T03:09:33.136Z,2.80
2023-04-28T03:12:20.129Z,3.53
2023-04-28T03:15:12.104Z,3.50
2023-04-28T03:18:01.211Z,3.30
2023-04-28T03:20:49.741Z,3.40
2023-04-28T03:23:36.934Z,3.33
2023-04-28T03:26:24.625Z,3.27
2023-04-28T03:29:12.714Z,3.27
2023-04-28T03:31:59.806Z,3.23
2023-04-28T03:34:47.059Z,3.67
2023-04-28T03:37:34.456Z,3.27
2023-04-28T03:40:21.669Z,3.00
2023-04-28T03:43:37.279Z,3.10
2023-04-28T03:46:43.058Z,3.20
2023-04-28T03:49:30.571Z,3.27
2023-04-28T03:52:17.858Z,3.57
2023-04-28T03:55:05.215Z,3.30
2023-04-28T03:57:52.527Z,3.17
2023-04-28T04:00:39.862Z,3.60
2023-04-28T04:03:27.404Z,3.57
2023-04-28T04:06:16.873Z,3.70
2023-04-28T04:09:04.067Z,3.60
2023-04-28T04:11:52.592Z,3.80
2023-04-28T04:14:39.604Z,3.93
2023-04-28T04:17:27.019Z,4.00
2023-04-28T04:20:14.091Z,4.10
2023-04-28T04:23:02.028Z,3.80
2023-04-28T04:25:49.655Z,4.33
2023-04-28T04:28:36.851Z,3.90
2023-04-28T04:31:25.836Z,3.90
2023-04-28T04:34:12.904Z,4.00
2023-04-28T04:36:59.947Z,3.80
2023-04-28T04:39:47.002Z,3.87
2023-04-28T04:42:35.547Z,3.90
2023-04-28T04:45:32.607Z,3.67
2023-04-28T04:48:19.882Z,3.70
2023-04-28T04:51:07.136Z,4.13
2023-04-28T04:53:55.252Z,4.10
2023-04-28T04:56:42.834Z,4.53
2023-04-28T04:59:31.412Z,3.87
2023-04-28T05:02:24.977Z,3.73
2023-04-28T05:05:20.365Z,3.40
2023-04-28T05:08:23.917Z,3.90
2023-04-28T05:11:10.910Z,3.63
2023-04-28T05:13:58.513Z,4.20
2023-04-28T05:16:45.776Z,4.00
2023-04-28T05:19:37.587Z,4.53
2023-04-28T05:22:26.006Z,4.17
2023-04-28T05:25:13.093Z,3.80
2023-04-28T05:28:04.784Z,3.73
2023-04-28T05:30:51.839Z,3.70
2023-04-28T05:33:38.876Z,3.73
2023-04-28T05:36:26.693Z,4.00
2023-04-28T05:39:13.966Z,3.77
2023-04-28T05:42:03.867Z,3.40
2023-04-28T05:44:50.873Z,4.20
2023-04-28T05:47:38.174Z,4.23
2023-04-28T05:50:25.357Z,3.77
2023-04-28T05:53:12.423Z,3.93
2023-04-28T05:55:59.531Z,3.73
2023-04-28T05:58:47.998Z,3.50
2023-04-28T06:01:35.623Z,3.50
2023-04-28T06:04:23.363Z,3.73
2023-04-28T06:07:11.150Z,3.90
2023-04-28T06:09:58.902Z,4.10
2023-04-28T06:12:46.038Z,3.63
2023-04-28T06:15:33.690Z,3.93
2023-04-28T06:18:21.037Z,3.37
2023-04-28T06:21:08.110Z,3.20
2023-04-28T06:23:56.059Z,4.10
2023-04-28T06:26:43.097Z,3.47
2023-04-28T06:29:30.391Z,3.90
2023-04-28T06:32:17.475Z,3.70
2023-04-28T06:35:04.913Z,3.53
2023-04-28T06:37:51.960Z,3.93
2023-04-28T06:40:40.739Z,3.70
2023-04-28T06:43:27.815Z,3.77
2023-04-28T06:46:29.158Z,3.70
2023-04-28T06:49:16.663Z,3.47
2023-04-28T06:52:03.926Z,4.10
2023-04-28T06:54:51.515Z,4.07
2023-04-28T06:57:38.637Z,3.50
2023-04-28T07:00:25.976Z,4.50
2023-04-28T07:03:13.111Z,3.73
2023-04-28T07:06:00.599Z,4.37
2023-04-28T07:08:47.665Z,3.70
2023-04-28T07:11:34.759Z,3.37
2023-04-28T07:14:21.760Z,3.87
2023-04-28T07:17:08.979Z,3.90
2023-04-28T07:19:55.929Z,3.90
2023-04-28T07:22:43.024Z,4.03
2023-04-28T07:25:30.074Z,4.23
2023-04-28T07:28:17.202Z,4.10
2023-04-28T07:31:04.242Z,3.87
2023-04-28T07:33:51.593Z,3.57
2023-04-28T07:36:38.695Z,3.87
2023-04-28T07:39:25.777Z,4.00
2023-04-28T07:42:12.894Z,4.20
2023-04-28T07:44:59.868Z,3.73
2023-04-28T07:47:46.960Z,4.60
2023-04-28T07:50:34.595Z,3.50
2023-04-28T07:53:21.794Z,4.53
2023-04-28T07:56:08.775Z,3.93
2023-04-28T07:58:57.028Z,3.77
2023-04-28T08:01:44.049Z,4.10
2023-04-28T08:04:33.746Z,4.13
2023-04-28T08:07:21.098Z,3.87
2023-04-28T08:10:10.504Z,3.97
2023-04-28T08:12:57.541Z,4.20
2023-04-28T08:15:44.760Z,3.77
2023-04-28T08:18:31.894Z,3.93
2023-04-28T08:21:18.980Z,3.97
2023-04-28T08:24:06.873Z,3.60
2023-04-28T08:26:55.094Z,4.23
2023-04-28T08:29:42.185Z,3.87
2023-04-28T08:32:29.185Z,3.40
2023-04-28T08:35:16.210Z,3.77
2023-04-28T08:38:03.328Z,3.67
2023-04-28T08:40:50.326Z,3.70
2023-04-28T08:43:37.507Z,3.57
2023-04-28T08:46:27.361Z,3.67
2023-04-28T08:49:18.927Z,3.30
2023-04-28T08:52:11.930Z,3.20
2023-04-28T08:55:01.538Z,3.40
2023-04-28T08:57:51.929Z,3.20
2023-04-28T09:00:38.987Z,3.43
2023-04-28T09:03:26.841Z,3.23
2023-04-28T09:06:13.936Z,3.20
2023-04-28T09:09:25.284Z,3.30
2023-04-28T09:12:12.468Z,3.20
2023-04-28T09:15:00.465Z,2.90
2023-04-28T09:17:52.060Z,3.27
2023-04-28T09:20:39.140Z,3.00
2023-04-28T09:23:26.531Z,3.30
2023-04-28T09:26:13.533Z,2.70
2023-04-28T09:29:13.855Z,3.03
2023-04-28T09:32:25.886Z,2.80
2023-04-28T09:35:13.216Z,2.87
2023-04-28T09:38:00.366Z,2.80
2023-04-28T09:40:59.042Z,2.73
2023-04-28T09:43:46.268Z,3.03
2023-04-28T09:46:33.322Z,3.37
2023-04-28T09:49:20.736Z,3.00
2023-04-28T09:52:14.017Z,3.00
2023-04-28T09:55:03.151Z,2.80
2023-04-28T09:57:54.535Z,2.80
2023-04-28T10:00:41.748Z,2.90
2023-04-28T10:03:30.651Z,2.80
2023-04-28T10:06:18.063Z,2.50
2023-04-28T10:09:06.578Z,2.73
2023-04-28T10:11:53.613Z,2.60
2023-04-28T10:14:42.676Z,2.67
2023-04-28T10:17:29.975Z,2.40
2023-04-28T10:20:17.390Z,2.70
2023-04-28T10:23:35.825Z,2.50
2023-04-28T10:26:44.610Z,3.00
2023-04-28T10:29:33.580Z,2.70
2023-04-28T10:32:23.649Z,2.70
2023-04-28T10:35:32.338Z,2.70
2023-04-28T10:38:21.944Z,2.50
2023-04-28T10:41:32.342Z,2.47
2023-04-28T10:44:28.392Z,2.73
2023-04-28T10:47:15.474Z,2.53
2023-04-28T10:50:11.316Z,2.80
2023-04-28T10:52:58.624Z,2.27
2023-04-28T10:55:46.025Z,2.63
2023-04-28T10:58:33.367Z,2.10
2023-04-28T11:01:26.137Z,2.50
2023-04-28T11:04:14.030Z,2.30
2023-04-28T11:07:14.617Z,2.30
2023-04-28T11:10:01.600Z,2.60
2023-04-28T11:13:34.155Z,2.37
2023-04-28T11:16:23.684Z,2.27
2023-04-28T11:19:13.388Z,2.33
2023-04-28T11:22:14.096Z,2.67
2023-04-28T11:25:02.998Z,2.60
2023-04-28T11:27:52.236Z,1.97
2023-04-28T11:30:39.736Z,2.10
2023-04-28T11:33:27.978Z,2.20
2023-04-28T11:36:32.875Z,2.20
2023-04-28T11:39:28.642Z,1.97
2023-04-28T11:42:17.087Z,2.00
2023-04-28T11:45:04.498Z,2.17
2023-04-28T11:47:51.726Z,2.30
2023-04-28T11:50:38.780Z,2.30
2023-04-28T11:53:44.675Z,1.70
2023-04-28T11:56:32.213Z,1.70
2023-04-28T11:59:27.239Z,1.70
2023-04-28T12:02:14.644Z,1.43
2023-04-28T12:05:08.958Z,1.60
2023-04-28T12:07:56.204Z,1.57
2023-04-28T12:10:43.280Z,1.70
2023-04-28T12:13:30.267Z,1.50
2023-04-28T12:16:38.960Z,1.37
2023-04-28T12:19:26.083Z,1.63
2023-04-28T12:22:13.248Z,1.53
2023-04-28T12:25:04.630Z,1.50
2023-04-28T12:28:07.478Z,1.60
2023-04-28T12:31:05.343Z,1.53
2023-04-28T12:33:52.488Z,1.60
2023-04-28T12:36:39.542Z,1.47
2023-04-28T12:39:27.120Z,1.30
2023-04-28T12:42:14.393Z,1.30
2023-04-28T12:45:01.921Z,1.20
2023-04-28T12:47:49.200Z,1.13
2023-04-28T12:50:36.222Z,1.30
2023-04-28T12:53:23.253Z,1.20
2023-04-28T12:56:10.443Z,1.20
2023-04-28T12:58:57.900Z,1.10
2023-04-28T13:01:44.937Z,1.20
2023-04-28T13:04:32.361Z,1.20
2023-04-28T13:07:19.574Z,1.30
2023-04-28T13:10:08.105Z,1.20
2023-04-28T13:12:55.199Z,1.07
2023-04-28T13:15:42.176Z,1.40
2023-04-28T13:18:30.128Z,1.30
2023-04-28T13:21:17.432Z,1.30
2023-04-28T13:24:04.818Z,0.90
2023-04-28T13:26:52.567Z,1.40
2023-04-28T13:29:40.174Z,1.20
2023-04-28T13:32:28.106Z,1.20
2023-04-28T13:35:15.285Z,1.27
2023-04-28T13:38:02.395Z,1.23
2023-04-28T13:40:49.448Z,1.40
2023-04-28T13:43:36.506Z,1.40
2023-04-28T13:46:23.705Z,1.43
2023-04-28T13:49:10.872Z,1.40
2023-04-28T13:51:58.061Z,1.30
2023-04-28T13:54:45.303Z,1.60
2023-04-28T13:57:32.811Z,1.40
2023-04-28T14:00:24.695Z,1.50
2023-04-28T14:03:12.085Z,1.67
2023-04-28T14:05:59.533Z,1.27
2023-04-28T14:08:46.769Z,1.60
2023-04-28T14:11:33.784Z,1.40
2023-04-28T14:14:20.918Z,1.60
2023-04-28T14:17:08.748Z,1.50
2023-04-28T14:19:56.200Z,1.70
2023-04-28T14:22:43.353Z,1.63
2023-04-28T14:25:30.412Z,1.40
2023-04-28T14:28:17.476Z,1.37
2023-04-28T14:31:07.262Z,1.43
2023-04-28T14:33:54.476Z,1.40
2023-04-28T14:36:42.302Z,1.40
2023-04-28T14:39:29.315Z,1.43
2023-04-28T14:42:16.417Z,1.20
2023-04-28T14:45:08.989Z,1.30
2023-04-28T14:47:56.118Z,1.47
2023-04-28T14:50:44.539Z,1.40
2023-04-28T14:53:32.159Z,1.50
2023-04-28T14:56:20.381Z,1.40
2023-04-28T14:59:08.286Z,1.20
2023-04-28T15:01:56.516Z,1.40
2023-04-28T15:04:46.280Z,1.30
2023-04-28T15:07:33.762Z,1.20
2023-04-28T15:10:21.248Z,1.40
2023-04-28T15:13:08.380Z,1.20
2023-04-28T15:15:56.158Z,1.20
2023-04-28T15:18:44.135Z,1.20
2023-04-28T15:21:31.125Z,1.03
2023-04-28T15:24:19.936Z,1.13
2023-04-28T15:27:07.110Z,1.20
2023-04-28T15:29:54.163Z,1.17
2023-04-28T15:32:41.398Z,1.03
2023-04-28T15:35:28.752Z,1.47
2023-04-28T15:38:16.284Z,1.20
2023-04-28T15:41:03.329Z,1.00
2023-04-28T15:43:50.673Z,1.10
2023-04-28T15:46:37.979Z,1.20
2023-04-28T15:49:25.093Z,1.10
2023-04-28T15:52:12.895Z,1.27
2023-04-28T15:55:00.858Z,1.10
2023-04-28T15:57:48.599Z,1.53
2023-04-28T16:00:35.765Z,2.20
2023-04-28T16:03:22.988Z,1.87
2023-04-28T16:06:10.301Z,1.83
2023-04-28T16:08:57.353Z,1.60
2023-04-28T16:11:44.596Z,1.60
2023-04-28T16:14:32.837Z,2.00
2023-04-28T16:17:19.873Z,1.60
2023-04-28T16:20:09.490Z,1.50
2023-04-28T16:22:56.601Z,1.67
2023-04-28T16:25:43.550Z,1.80
2023-04-28T16:28:30.553Z,1.50
2023-04-28T16:31:17.600Z,1.60
2023-04-28T16:34:04.595Z,1.43
2023-04-28T16:36:51.747Z,1.50
2023-04-28T16:39:38.816Z,1.40
2023-04-28T16:42:25.812Z,1.40
2023-04-28T16:45:13.261Z,1.10
2023-04-28T16:48:00.354Z,1.50
2023-04-28T16:50:47.396Z,1.10
2023-04-28T16:53:34.388Z,1.20
2023-04-28T16:56:21.797Z,1.10
2023-04-28T16:59:08.771Z,1.20
2023-04-28T17:02:00.186Z,1.30
2023-04-28T17:04:47.391Z,1.23
2023-04-28T17:07:34.461Z,1.20
2023-04-28T17:10:22.335Z,0.90
2023-04-28T17:13:10.223Z,1.30
2023-04-28T17:15:57.826Z,1.57
2023-04-28T17:18:45.355Z,1.20
2023-04-28T17:21:33.674Z,1.00
2023-04-28T17:24:20.668Z,1.10
2023-04-28T17:27:09.353Z,1.10
2023-04-28T17:29:56.509Z,1.03
2023-04-28T17:32:43.499Z,1.00
2023-04-28T17:35:30.818Z,0.90
2023-04-28T17:38:17.786Z,1.10
2023-04-28T17:41:04.775Z,1.10
2023-04-28T17:43:51.976Z,1.10
2023-04-28T17:46:39.011Z,1.10
2023-04-28T17:49:26.008Z,1.13
2023-04-28T17:52:14.594Z,1.00
2023-04-28T17:55:02.227Z,1.20
2023-04-28T17:57:51.672Z,1.17
2023-04-28T18:00:38.694Z,1.07
2023-04-28T18:03:25.775Z,0.90
2023-04-28T18:06:13.788Z,0.90
2023-04-28T18:09:01.356Z,0.80
2023-04-28T18:11:48.409Z,0.80
2023-04-28T18:14:35.441Z,1.00
2023-04-28T18:17:23.240Z,0.77
2023-04-28T18:20:10.885Z,0.90
2023-04-28T18:22:58.137Z,0.73
2023-04-28T18:25:45.305Z,0.93
2023-04-28T18:28:33.835Z,0.70
2023-04-28T18:31:21.399Z,0.80
2023-04-28T18:34:08.581Z,0.90
2023-04-28T18:36:55.688Z,0.60
2023-04-28T18:39:42.992Z,0.63
2023-04-28T18:42:32.672Z,0.70
2023-04-28T18:45:19.986Z,1.23
2023-04-28T18:48:07.835Z,0.73
2023-04-28T18:50:55.129Z,0.63
2023-04-28T18:53:42.141Z,0.80
2023-04-28T18:56:29.223Z,0.90
2023-04-28T18:59:16.403Z,0.90
2023-04-28T19:02:03.857Z,1.00
2023-04-28T19:04:51.332Z,0.90
2023-04-28T19:07:38.784Z,1.20
2023-04-28T19:10:25.814Z,1.00
2023-04-28T19:13:14.256Z,0.80
2023-04-28T19:16:01.254Z,0.60
2023-04-28T19:18:48.928Z,0.47
2023-04-28T19:21:42.188Z,0.40
2023-04-28T19:24:29.661Z,0.50
2023-04-28T19:27:16.645Z,0.67
2023-04-28T19:30:06.157Z,0.60
2023-04-28T19:32:53.258Z,0.60
2023-04-28T19:35:40.441Z,0.70
2023-04-28T19:38:28.353Z,0.50
2023-04-28T19:41:15.340Z,0.60
2023-04-28T19:44:03.231Z,0.80
2023-04-28T19:46:50.471Z,0.60
2023-04-28T19:49:37.993Z,0.70
2023-04-28T19:52:25.053Z,0.80
2023-04-28T19:55:13.083Z,0.80
2023-04-28T19:58:01.106Z,0.80
2023-04-28T20:00:48.154Z,0.80
2023-04-28T20:03:36.090Z,0.70
2023-04-28T20:06:23.613Z,0.90
2023-04-28T20:09:10.646Z,1.20
2023-04-28T20:11:57.834Z,1.10
2023-04-28T20:14:45.373Z,1.30
2023-04-28T20:17:32.371Z,1.10
2023-04-28T20:20:19.425Z,1.00
2023-04-28T20:23:06.685Z,0.80
2023-04-28T20:25:54.369Z,1.40
2023-04-28T20:28:44.222Z,1.10
2023-04-28T20:31:31.284Z,1.00
2023-04-28T20:34:18.328Z,0.90
2023-04-28T20:37:06.550Z,1.10
2023-04-28T20:39:53.660Z,1.00
2023-04-28T20:42:40.775Z,0.90
2023-04-28T20:45:27.926Z,0.90
2023-04-28T20:48:14.932Z,0.93
2023-04-28T20:51:03.727Z,1.87
2023-04-28T20:53:50.692Z,1.97
2023-04-28T20:56:37.873Z,1.20
2023-04-28T20:59:24.862Z,1.00
2023-04-28T21:02:12.002Z,0.80
2023-04-28T21:04:59.042Z,0.70
2023-04-28T21:07:46.411Z,0.70
2023-04-28T21:10:33.392Z,0.60
2023-04-28T21:13:20.405Z,1.30
2023-04-28T21:16:13.237Z,2.00
2023-04-28T21:19:00.959Z,1.70
2023-04-28T21:21:47.951Z,1.00
2023-04-28T21:24:34.898Z,0.70
2023-04-28T21:27:21.984Z,0.60
2023-04-28T21:30:10.241Z,0.60
2023-04-28T21:32:57.318Z,0.60
2023-04-28T21:35:44.571Z,0.57
2023-04-28T21:38:31.516Z,0.50
2023-04-28T21:41:18.569Z,0.73
2023-04-28T21:44:06.041Z,1.03
2023-04-28T21:46:52.997Z,1.40
2023-04-28T21:49:39.973Z,1.13
2023-04-28T21:52:27.060Z,1.40
2023-04-28T21:55:14.034Z,1.30
2023-04-28T21:58:01.034Z,1.70
2023-04-28T22:00:48.446Z,1.20
2023-04-28T22:03:36.233Z,1.10
2023-04-28T22:06:23.473Z,1.30
2023-04-28T22:09:10.564Z,1.07
2023-04-28T22:11:57.578Z,1.03
2023-04-28T22:14:44.576Z,1.30
2023-04-28T22:17:32.135Z,1.10
2023-04-28T22:20:19.180Z,1.10
2023-04-28T22:23:06.180Z,0.80
2023-04-28T22:25:53.236Z,0.60
2023-04-28T22:28:40.470Z,0.80
2023-04-28T22:31:27.612Z,0.50
2023-04-28T22:34:14.601Z,0.70
2023-04-28T22:37:01.715Z,0.60
2023-04-28T22:39:48.976Z,0.60
2023-04-28T22:42:37.256Z,0.60
2023-04-28T22:45:24.217Z,0.57
2023-04-28T22:48:13.301Z,0.90
2023-04-28T22:51:00.683Z,1.30
2023-04-28T22:53:48.576Z,1.43
2023-04-28T22:56:36.227Z,1.40
2023-04-28T22:59:23.532Z,1.37
2023-04-28T23:02:13.226Z,1.17
2023-04-28T23:05:00.609Z,1.57
2023-04-28T23:07:47.627Z,1.10
2023-04-28T23:10:34.663Z,1.17
2023-04-28T23:13:21.651Z,1.10
2023-04-28T23:16:08.661Z,1.10
2023-04-28T23:18:55.668Z,1.13
2023-04-28T23:21:42.637Z,1.27
2023-04-28T23:24:29.656Z,1.30
2023-04-28T23:27:16.628Z,1.13
2023-04-28T23:30:03.862Z,1.10
2023-04-28T23:32:51.395Z,1.40
2023-04-28T23:35:38.374Z,1.40
2023-04-28T23:38:26.406Z,1.23
2023-04-28T23:41:13.753Z,1.30
2023-04-28T23:44:00.752Z,1.20
2023-04-28T23:46:49.190Z,1.20
2023-04-28T23:49:36.186Z,1.00
2023-04-28T23:52:23.206Z,1.10
2023-04-28T23:55:12.917Z,1.00
2023-04-28T23:58:00.178Z,0.83
